Time;durP1;ratioP1;P1;durP2;ratioP2;P2;SDS_P1;SDS_P2;PMS_P1;PMS_P2;Temp;Humidity;BMP_temperature;BMP_pressure;BME280_temperature;BME280_humidity;BME280_pressure;Samples;Min_cycle;Max_cycle;Signal;HPM_P1;HPM_P2
2024/03/04 00:00:46;;;;;;;7.63;5.37;;;4.40;99.90;4.10;99413.00;;;;4929601;28;93193;-64
2024/03/04 00:03:12;;;;;;;9.83;6.37;;;4.30;99.90;4.10;99411.00;;;;4927382;28;96587;-64
2024/03/04 00:05:39;;;;;;;7.67;4.93;;;4.30;99.90;4.00;99413.00;;;;4929758;28;93061;-63
2024/03/04 00:08:05;;;;;;;8.17;6.23;;;4.20;99.90;4.00;99401.00;;;;4930599;28;92261;-63
2024/03/04 00:10:31;;;;;;;9.47;5.63;;;4.30;99.90;4.00;99410.00;;;;4927573;28;101926;-62
2024/03/04 00:12:57;;;;;;;9.63;5.93;;;4.20;99.90;4.00;99411.00;;;;4928469;28;93537;-62
2024/03/04 00:15:23;;;;;;;5.70;5.10;;;4.70;99.90;3.90;99409.00;;;;4927279;28;93816;-63
2024/03/04 00:17:50;;;;;;;9.83;6.53;;;4.10;99.90;3.90;99413.00;;;;4928455;28;102991;-63
2024/03/04 00:20:18;;;;;;;9.47;7.10;;;4.10;99.90;3.90;99411.00;;;;4933170;28;93063;-63
2024/03/04 00:22:46;;;;;;;8.27;5.43;;;4.20;99.90;3.90;99410.00;;;;4926986;28;92996;-61
2024/03/04 00:25:16;;;;;;;8.00;5.63;;;4.10;99.90;3.80;99415.00;;;;4933720;28;93538;-62
2024/03/04 00:27:43;;;;;;;6.30;4.37;;;4.10;99.90;3.80;99422.00;;;;4936043;28;93017;-62
2024/03/04 00:30:10;;;;;;;8.50;5.17;;;4.00;99.90;3.70;99426.00;;;;4935090;28;100259;-62
2024/03/04 00:32:35;;;;;;;7.27;4.97;;;3.90;99.90;3.70;99419.00;;;;4928432;28;107846;-63
2024/03/04 00:35:01;;;;;;;7.63;5.53;;;4.00;99.90;3.70;99413.00;;;;4930724;28;120968;-63
2024/03/04 00:37:27;;;;;;;5.77;4.87;;;3.90;99.90;3.60;99421.00;;;;4927878;28;109491;-63
2024/03/04 00:39:52;;;;;;;7.37;5.50;;;3.80;99.90;3.60;99427.00;;;;4928838;28;105930;-62
2024/03/04 00:42:18;;;;;;;5.63;4.17;;;4.70;99.90;3.60;99420.00;;;;4926625;28;124056;-63
2024/03/04 00:44:44;;;;;;;6.07;5.27;;;3.90;99.90;3.60;99421.00;;;;4928562;28;92820;-63
2024/03/04 00:47:10;;;;;;;8.50;5.67;;;3.80;99.90;3.60;99417.00;;;;4927234;28;110257;-63
2024/03/04 00:49:35;;;;;;;5.70;4.87;;;3.80;99.90;3.50;99419.00;;;;4928292;28;109567;-63
2024/03/04 00:52:02;;;;;;;7.03;4.27;;;4.10;99.90;3.50;99429.00;;;;4928681;28;94182;-63
2024/03/04 00:54:27;;;;;;;7.43;4.30;;;3.70;99.90;3.50;99431.00;;;;4932835;28;92902;-63
2024/03/04 00:56:55;;;;;;;8.47;5.40;;;3.70;99.90;3.50;99435.00;;;;4928494;28;110697;-63
2024/03/04 00:59:23;;;;;;;9.23;5.70;;;3.70;99.90;3.50;99431.00;;;;4928679;28;93098;-63
2024/03/04 01:01:50;;;;;;;6.97;5.23;;;3.70;99.90;3.50;99435.00;;;;4929099;28;93820;-64
2024/03/04 01:04:16;;;;;;;7.00;5.73;;;3.70;99.90;3.50;99438.00;;;;4928265;28;93874;-63
2024/03/04 01:06:41;;;;;;;7.70;6.17;;;3.70;99.90;3.50;99447.00;;;;4930771;28;100573;-63
2024/03/04 01:09:10;;;;;;;9.03;5.47;;;3.80;99.90;3.60;99446.00;;;;4929253;28;108704;-64
2024/03/04 01:11:36;;;;;;;8.07;5.67;;;3.80;99.90;3.60;99444.00;;;;4929328;28;93567;-63
2024/03/04 01:14:02;;;;;;;7.07;5.03;;;3.80;99.90;3.60;99443.00;;;;4931397;28;113926;-64
2024/03/04 01:16:28;;;;;;;7.23;5.70;;;3.80;99.90;3.60;99445.00;;;;4927152;28;93073;-64
2024/03/04 01:18:54;;;;;;;8.37;6.37;;;3.80;99.90;3.60;99444.00;;;;4929738;28;93002;-64
2024/03/04 01:21:20;;;;;;;7.43;5.67;;;3.80;99.90;3.60;99444.00;;;;4924976;28;92831;-64
2024/03/04 01:23:46;;;;;;;8.23;5.37;;;4.50;99.90;3.60;99444.00;;;;4924853;28;93180;-64
2024/03/04 01:26:14;;;;;;;6.80;5.73;;;3.90;99.90;3.60;99445.00;;;;4930011;28;92969;-64
2024/03/04 01:28:40;;;;;;;7.67;5.73;;;3.90;99.90;3.60;99441.00;;;;4924130;28;93945;-64
2024/03/04 01:31:07;;;;;;;5.60;4.80;;;3.80;99.90;3.60;99452.00;;;;4931368;28;93650;-65
2024/03/04 01:33:33;;;;;;;5.67;5.17;;;3.90;99.90;3.60;99440.00;;;;4928412;28;93263;-64
2024/03/04 01:36:00;;;;;;;8.87;6.67;;;4.40;99.90;3.60;99452.00;;;;4929612;28;92983;-64
2024/03/04 01:38:26;;;;;;;10.80;6.33;;;3.80;99.90;3.60;99456.00;;;;4929150;28;94113;-64
2024/03/04 01:40:52;;;;;;;7.50;5.60;;;4.20;99.90;3.50;99452.00;;;;4929349;28;93351;-63
2024/03/04 01:43:18;;;;;;;9.73;6.57;;;3.70;99.90;3.50;99460.00;;;;4931034;28;93911;-64
2024/03/04 01:45:44;;;;;;;9.07;5.03;;;3.70;99.90;3.50;99460.00;;;;4933383;28;92471;-63
2024/03/04 01:48:11;;;;;;;6.93;4.93;;;3.70;99.90;3.40;99467.00;;;;4934539;28;108498;-64
2024/03/04 01:50:43;;;;;;;6.90;5.70;;;3.70;99.90;3.40;99474.00;;;;4933106;28;123230;-63
2024/03/04 01:53:10;;;;;;;8.13;5.20;;;3.70;99.90;3.40;99467.00;;;;4926272;28;94280;-64
2024/03/04 01:55:50;;;;;;;8.47;5.87;;;3.60;99.90;3.40;99469.00;;;;4929953;28;98803;-63
2024/03/04 01:58:17;;;;;;;7.43;5.03;;;4.30;99.90;3.30;99471.00;;;;4933066;28;92811;-64
2024/03/04 02:00:46;;;;;;;6.50;5.23;;;3.60;99.90;3.30;99462.00;;;;4930039;28;110579;-64
2024/03/04 02:03:14;;;;;;;6.47;3.97;;;3.50;99.90;3.30;99472.00;;;;4932211;28;109887;-64
2024/03/04 02:05:48;;;;;;;9.30;5.17;;;3.60;99.90;3.20;99461.00;;;;4933820;28;93039;-65
2024/03/04 02:08:16;;;;;;;7.23;4.63;;;3.50;99.90;3.20;99466.00;;;;4931312;28;92846;-65
2024/03/04 02:10:42;;;;;;;7.00;5.50;;;3.60;99.90;3.30;99465.00;;;;4933221;28;92065;-65
2024/03/04 02:13:09;;;;;;;16.77;7.00;;;3.60;99.90;3.30;99470.00;;;;4929784;28;92898;-65
2024/03/04 02:15:37;;;;;;;8.63;5.47;;;3.50;99.90;3.20;99470.00;;;;4932434;28;93043;-65
2024/03/04 02:18:07;;;;;;;6.60;5.57;;;3.50;99.90;3.20;99464.00;;;;4933467;28;95090;-65
2024/03/04 02:20:45;;;;;;;6.03;5.43;;;3.50;99.90;3.20;99465.00;;;;4932856;28;94139;-65
2024/03/04 02:23:12;;;;;;;8.50;5.77;;;3.30;99.90;3.10;99449.00;;;;4931229;28;93867;-63
2024/03/04 02:25:39;;;;;;;7.80;5.97;;;3.40;99.90;3.10;99468.00;;;;4930616;28;92947;-64
2024/03/04 02:28:06;;;;;;;11.13;6.47;;;3.40;99.90;3.10;99470.00;;;;4930999;28;93140;-64
2024/03/04 02:30:33;;;;;;;7.77;5.80;;;3.30;99.90;3.10;99456.00;;;;4927619;28;94042;-64
2024/03/04 02:33:04;;;;;;;7.40;5.00;;;3.40;99.90;3.10;99457.00;;;;4932079;28;120669;-64
2024/03/04 02:35:33;;;;;;;9.63;4.97;;;3.30;99.90;3.10;99457.00;;;;4929670;28;111068;-65
2024/03/04 02:38:02;;;;;;;8.27;5.53;;;3.30;99.90;3.10;99468.00;;;;4930998;28;92945;-64
2024/03/04 02:40:28;;;;;;;7.47;5.10;;;3.40;99.90;3.10;99464.00;;;;4931334;28;93321;-65
2024/03/04 02:42:53;;;;;;;10.33;6.07;;;3.30;99.90;3.00;99470.00;;;;4928918;28;93750;-65
2024/03/04 02:45:19;;;;;;;11.00;6.03;;;3.30;99.90;3.00;99462.00;;;;4927877;28;109308;-64
2024/03/04 02:47:44;;;;;;;8.73;6.47;;;3.20;99.90;3.00;99465.00;;;;4928483;28;107872;-64
2024/03/04 02:50:10;;;;;;;8.63;5.67;;;3.30;99.90;3.00;99464.00;;;;4930844;28;123198;-64
2024/03/04 02:52:36;;;;;;;9.87;5.50;;;3.20;99.90;3.10;99475.00;;;;4933611;28;93407;-66
2024/03/04 02:55:02;;;;;;;10.47;6.43;;;3.20;99.90;3.00;99469.00;;;;4927233;28;96592;-65
2024/03/04 02:57:28;;;;;;;7.80;6.13;;;3.20;99.90;3.00;99469.00;;;;4926854;28;101135;-64
2024/03/04 02:59:53;;;;;;;9.80;7.60;;;3.20;99.90;3.00;99470.00;;;;4929699;28;92687;-64
2024/03/04 03:02:19;;;;;;;9.17;5.57;;;3.30;99.90;3.00;99479.00;;;;4923096;28;113388;-65
2024/03/04 03:04:45;;;;;;;11.80;6.40;;;3.10;99.90;3.00;99482.00;;;;4927562;28;110561;-64
2024/03/04 03:07:10;;;;;;;10.87;6.33;;;3.30;99.90;3.00;99462.00;;;;4926662;28;107815;-64
2024/03/04 03:09:36;;;;;;;7.47;6.30;;;3.20;99.90;3.00;99473.00;;;;4930037;28;94412;-63
2024/03/04 03:12:02;;;;;;;9.67;6.20;;;3.10;99.90;3.00;99479.00;;;;4926907;28;121875;-64
2024/03/04 03:14:27;;;;;;;8.90;5.87;;;3.30;99.90;2.90;99474.00;;;;4929393;28;107904;-64
2024/03/04 03:16:53;;;;;;;10.40;5.77;;;3.20;99.90;3.00;99479.00;;;;4931791;28;92774;-64
2024/03/04 03:19:26;;;;;;;10.87;6.03;;;3.30;99.90;3.00;99485.00;;;;4934613;28;93564;-64
2024/03/04 03:21:52;;;;;;;12.17;5.97;;;3.30;99.90;2.90;99497.00;;;;4931658;28;94194;-65
2024/03/04 03:24:22;;;;;;;9.20;6.57;;;3.20;99.90;2.90;99489.00;;;;4935287;28;92276;-65
2024/03/04 03:26:48;;;;;;;9.33;5.70;;;3.10;99.90;2.90;99502.00;;;;4926968;28;93183;-65
2024/03/04 03:29:14;;;;;;;7.50;5.43;;;3.10;99.90;2.90;99504.00;;;;4929669;28;95476;-63
2024/03/04 03:31:40;;;;;;;9.73;6.33;;;3.10;99.90;2.80;99512.00;;;;4926514;28;114938;-63
2024/03/04 03:34:06;;;;;;;8.20;5.77;;;3.00;99.90;2.80;99504.00;;;;4932201;28;93007;-63
2024/03/04 03:36:32;;;;;;;7.63;5.40;;;3.10;99.90;2.80;99512.00;;;;4925464;28;109211;-63
2024/03/04 03:38:57;;;;;;;7.00;4.77;;;3.10;99.90;2.70;99498.00;;;;4932746;28;122249;-63
2024/03/04 03:41:23;;;;;;;7.27;5.83;;;2.90;99.90;2.70;99512.00;;;;4931682;28;120022;-63
2024/03/04 03:43:49;;;;;;;7.90;5.90;;;3.00;99.90;2.70;99519.00;;;;4926661;28;109493;-64
2024/03/04 03:46:15;;;;;;;9.10;5.67;;;2.90;99.90;2.70;99524.00;;;;4929815;28;92932;-64
2024/03/04 03:48:43;;;;;;;8.50;5.60;;;2.90;99.90;2.60;99519.00;;;;4931758;28;121610;-64
2024/03/04 03:51:09;;;;;;;9.27;6.17;;;2.90;99.90;2.60;99526.00;;;;4928406;28;112793;-64
2024/03/04 03:53:35;;;;;;;7.83;6.50;;;2.80;99.90;2.60;99536.00;;;;4930575;28;110862;-64
2024/03/04 03:56:04;;;;;;;7.47;5.17;;;2.80;99.90;2.50;99523.00;;;;4930346;28;108736;-64
2024/03/04 03:58:29;;;;;;;10.03;6.70;;;2.80;99.90;2.50;99525.00;;;;4928747;28;104569;-64
2024/03/04 04:00:55;;;;;;;6.33;5.73;;;2.90;99.90;2.40;99523.00;;;;4931309;28;109973;-64
2024/03/04 04:03:21;;;;;;;6.70;5.17;;;3.60;99.90;2.40;99522.00;;;;4932507;28;109564;-64
2024/03/04 04:05:47;;;;;;;7.23;5.60;;;2.70;99.90;2.40;99524.00;;;;4933605;28;93105;-64
2024/03/04 04:08:13;;;;;;;9.03;5.57;;;2.70;99.90;2.40;99536.00;;;;4928855;28;115132;-64
2024/03/04 04:10:39;;;;;;;9.23;6.07;;;2.70;99.90;2.30;99533.00;;;;4931828;28;121365;-64
2024/03/04 04:13:05;;;;;;;11.57;7.30;;;2.60;99.90;2.30;99523.00;;;;4924788;28;110738;-64
2024/03/04 04:15:31;;;;;;;12.60;5.73;;;2.60;99.90;2.30;99536.00;;;;4930716;28;106488;-64
2024/03/04 04:17:57;;;;;;;11.23;6.33;;;2.60;99.90;2.30;99535.00;;;;4928133;28;121863;-64
2024/03/04 04:20:24;;;;;;;8.77;6.07;;;2.60;99.90;2.30;99533.00;;;;4926470;28;93914;-64
2024/03/04 04:22:50;;;;;;;9.13;6.53;;;2.50;99.90;2.20;99528.00;;;;4927634;28;102223;-64
2024/03/04 04:25:16;;;;;;;8.37;5.70;;;2.60;99.90;2.20;99532.00;;;;4929670;28;92829;-64
2024/03/04 04:27:43;;;;;;;9.47;5.17;;;2.50;99.90;2.20;99540.00;;;;4931062;28;94129;-65
2024/03/04 04:30:09;;;;;;;8.03;5.87;;;2.40;99.90;2.20;99534.00;;;;4931180;28;93028;-66
2024/03/04 04:32:35;;;;;;;7.50;4.93;;;2.40;99.90;2.10;99540.00;;;;4931043;28;93122;-66
2024/03/04 04:35:02;;;;;;;11.77;6.33;;;2.40;99.90;2.10;99534.00;;;;4930926;28;92937;-67
2024/03/04 04:37:29;;;;;;;11.23;5.63;;;2.40;99.90;2.20;99533.00;;;;4933775;28;92604;-66
2024/03/04 04:39:55;;;;;;;11.20;5.67;;;2.50;99.90;2.20;99525.00;;;;4931327;28;112540;-66
2024/03/04 04:42:22;;;;;;;6.60;5.30;;;2.40;99.90;2.20;99534.00;;;;4931980;28;97636;-66
2024/03/04 04:44:48;;;;;;;6.53;5.60;;;2.40;99.90;2.20;99528.00;;;;4926082;28;93664;-66
2024/03/04 04:47:14;;;;;;;7.13;5.50;;;2.40;99.90;2.20;99540.00;;;;4932293;28;112194;-66
2024/03/04 04:49:40;;;;;;;9.83;6.47;;;2.50;99.90;2.20;99541.00;;;;4929978;28;93706;-66
2024/03/04 04:52:06;;;;;;;6.17;5.40;;;2.40;99.90;2.20;99540.00;;;;4928001;28;109760;-66
2024/03/04 04:54:31;;;;;;;5.87;5.20;;;2.40;99.90;2.20;99535.00;;;;4927915;28;109248;-66
2024/03/04 04:56:57;;;;;;;8.57;6.17;;;2.50;99.90;2.20;99536.00;;;;4926958;28;123864;-66
2024/03/04 04:59:23;;;;;;;6.47;5.23;;;3.50;99.90;2.20;99538.00;;;;4926295;28;121602;-66
2024/03/04 05:01:48;;;;;;;9.80;6.20;;;2.50;99.90;2.20;99543.00;;;;4925448;28;108488;-66
2024/03/04 05:04:14;;;;;;;8.87;6.17;;;2.50;99.90;2.20;99543.00;;;;4926248;28;107584;-66
2024/03/04 05:06:40;;;;;;;11.23;6.30;;;2.60;99.90;2.20;99553.00;;;;4922556;28;123185;-66
2024/03/04 05:09:06;;;;;;;10.53;6.67;;;2.50;99.90;2.20;99560.00;;;;4925576;28;111544;-68
2024/03/04 05:11:32;;;;;;;7.23;5.70;;;2.50;99.90;2.10;99560.00;;;;4926270;28;110663;-67
2024/03/04 05:13:59;;;;;;;8.40;6.33;;;2.50;99.90;2.10;99562.00;;;;4928838;28;94405;-66
2024/03/04 05:16:25;;;;;;;6.73;5.87;;;2.40;99.90;2.10;99580.00;;;;4927232;28;93761;-67
2024/03/04 05:18:51;;;;;;;8.20;4.73;;;2.40;99.90;2.10;99568.00;;;;4930268;28;121392;-67
2024/03/04 05:21:17;;;;;;;7.80;5.40;;;2.40;99.90;2.10;99567.00;;;;4922885;28;94068;-64
2024/03/04 05:23:43;;;;;;;13.30;7.60;;;2.40;99.90;2.10;99563.00;;;;4919999;28;93120;-67
2024/03/04 05:26:08;;;;;;;10.73;6.60;;;2.40;99.90;2.10;99568.00;;;;4919290;28;92199;-67
2024/03/04 05:28:34;;;;;;;11.00;6.63;;;2.40;99.90;2.20;99579.00;;;;4921901;28;113999;-67
2024/03/04 05:31:00;;;;;;;8.13;6.20;;;2.40;99.90;2.20;99577.00;;;;4926116;28;93041;-67
2024/03/04 05:33:26;;;;;;;7.73;6.17;;;2.40;99.90;2.20;99572.00;;;;4922662;28;108049;-67
2024/03/04 05:35:52;;;;;;;12.97;6.23;;;2.50;99.90;2.30;99575.00;;;;4918994;28;121868;-67
2024/03/04 05:38:17;;;;;;;8.07;7.00;;;3.50;99.90;2.30;99575.00;;;;4923925;28;123553;-67
2024/03/04 05:40:44;;;;;;;8.90;6.67;;;2.50;99.90;2.30;99576.00;;;;4926415;28;110329;-68
2024/03/04 05:43:10;;;;;;;14.67;7.90;;;2.50;99.90;2.40;99591.00;;;;4924509;28;93072;-67
2024/03/04 05:45:35;;;;;;;10.27;7.07;;;2.60;99.90;2.40;99592.00;;;;4922899;28;93723;-67
2024/03/04 05:48:01;;;;;;;13.33;7.33;;;2.60;99.90;2.50;99593.00;;;;4923224;28;93208;-67
2024/03/04 05:50:27;;;;;;;9.30;6.63;;;2.70;99.90;2.50;99608.00;;;;4922571;28;92402;-67
2024/03/04 05:52:53;;;;;;;7.70;6.20;;;2.80;99.90;2.60;99607.00;;;;4918673;28;108879;-67
2024/03/04 05:55:19;;;;;;;10.37;7.13;;;2.80;99.90;2.60;99607.00;;;;4922880;28;123835;-68
2024/03/04 05:57:45;;;;;;;10.27;7.60;;;2.70;99.90;2.70;99606.00;;;;4923415;28;93961;-67
2024/03/04 06:00:12;;;;;;;8.67;6.10;;;2.80;99.90;2.70;99610.00;;;;4920552;28;94516;-70
2024/03/04 06:02:44;;;;;;;8.80;7.33;;;2.90;99.90;2.70;99615.00;;;;4926736;28;99033;-69
2024/03/04 06:05:13;;;;;;;7.40;6.17;;;2.90;99.90;2.70;99616.00;;;;4924921;28;109799;-68
2024/03/04 06:07:41;;;;;;;16.97;6.27;;;2.90;99.90;2.70;99623.00;;;;4920102;28;99670;-69
2024/03/04 06:10:07;;;;;;;7.83;7.00;;;2.90;99.90;2.80;99627.00;;;;4923937;28;94044;-69
2024/03/04 06:12:34;;;;;;;11.00;6.07;;;3.00;99.90;2.80;99621.00;;;;4921804;28;102808;-69
2024/03/04 06:14:59;;;;;;;5.83;5.23;;;4.00;99.90;2.80;99611.00;;;;4920529;28;114025;-69
2024/03/04 06:17:26;;;;;;;14.43;7.43;;;3.10;99.90;2.80;99619.00;;;;4926597;28;120694;-69
2024/03/04 06:19:52;;;;;;;12.43;7.03;;;3.00;99.90;2.80;99628.00;;;;4927070;28;93783;-69
2024/03/04 06:22:18;;;;;;;10.17;5.97;;;3.00;99.90;2.80;99633.00;;;;4924743;28;94004;-69
2024/03/04 06:24:44;;;;;;;10.43;6.57;;;3.80;99.90;2.90;99636.00;;;;4927122;28;93026;-69
2024/03/04 06:27:09;;;;;;;12.03;6.77;;;3.10;99.90;2.90;99642.00;;;;4925536;28;94592;-69
2024/03/04 06:29:35;;;;;;;7.47;5.73;;;3.10;99.90;2.90;99655.00;;;;4929447;28;109503;-69
2024/03/04 06:32:05;;;;;;;9.07;7.03;;;3.10;99.90;3.00;99651.00;;;;4926625;28;93239;-69
2024/03/04 06:34:31;;;;;;;12.07;7.07;;;3.20;99.90;3.00;99658.00;;;;4923628;28;94425;-69
2024/03/04 06:36:58;;;;;;;7.10;5.80;;;3.10;99.90;3.00;99655.00;;;;4929943;28;93501;-70
2024/03/04 06:39:24;;;;;;;10.23;6.90;;;3.20;99.90;3.10;99657.00;;;;4932872;28;92123;-69
2024/03/04 06:41:52;;;;;;;7.83;6.23;;;3.30;99.90;3.10;99659.00;;;;4931503;28;93032;-69
2024/03/04 06:44:17;;;;;;;12.20;7.20;;;4.10;99.90;3.10;99661.00;;;;4929720;28;93248;-69
2024/03/04 06:46:44;;;;;;;10.43;7.00;;;3.40;99.90;3.20;99660.00;;;;4929774;28;94291;-68
2024/03/04 06:49:10;;;;;;;7.53;6.03;;;3.30;99.90;3.20;99659.00;;;;4929580;28;94716;-69
2024/03/04 06:51:36;;;;;;;9.33;6.97;;;3.50;99.90;3.30;99667.00;;;;4930552;28;92828;-68
2024/03/04 06:54:07;;;;;;;9.13;5.73;;;3.50;99.90;3.30;99671.00;;;;4928975;28;120918;-68
2024/03/04 06:56:33;;;;;;;13.63;6.67;;;3.50;99.90;3.40;99680.00;;;;4930816;28;93561;-68
2024/03/04 06:59:01;;;;;;;9.87;6.67;;;3.60;99.90;3.40;99672.00;;;;4928280;28;101333;-68
2024/03/04 07:01:28;;;;;;;12.33;7.60;;;3.60;99.90;3.50;99686.00;;;;4932854;28;93202;-67
2024/03/04 07:03:54;;;;;;;7.33;5.70;;;3.70;99.90;3.60;99673.00;;;;4928418;28;110749;-67
2024/03/04 07:06:21;;;;;;;13.00;7.23;;;3.80;99.90;3.70;99687.00;;;;4928384;28;92960;-66
2024/03/04 07:08:47;;;;;;;7.90;6.00;;;3.80;99.90;3.70;99688.00;;;;4927582;28;98407;-66
2024/03/04 07:11:13;;;;;;;14.90;7.03;;;3.90;99.90;3.80;99687.00;;;;4931078;28;108090;-66
2024/03/04 07:13:40;;;;;;;9.63;6.43;;;3.80;99.90;3.90;99696.00;;;;4931621;28;93955;-66
2024/03/04 07:16:07;;;;;;;15.67;8.80;;;4.00;99.90;4.00;99698.00;;;;4936527;28;94324;-66
2024/03/04 07:18:35;;;;;;;9.80;6.50;;;4.10;99.90;4.10;99696.00;;;;4935857;28;92594;-65
2024/03/04 07:21:01;;;;;;;12.87;8.00;;;4.30;99.90;4.20;99695.00;;;;4934773;28;109150;-67
2024/03/04 07:23:27;;;;;;;6.93;6.23;;;4.20;99.90;4.30;99689.00;;;;4932123;28;94228;-65
2024/03/04 07:25:54;;;;;;;10.83;7.33;;;4.50;99.90;4.40;99701.00;;;;4931992;28;93437;-65
2024/03/04 07:28:20;;;;;;;11.07;8.27;;;4.50;99.90;4.50;99703.00;;;;4927283;28;110588;-67
2024/03/04 07:30:47;;;;;;;12.47;7.83;;;4.60;99.90;4.60;99704.00;;;;4933535;28;92924;-65
2024/03/04 07:33:13;;;;;;;10.63;6.90;;;4.70;99.90;4.70;99707.00;;;;4930173;28;93136;-66
2024/03/04 07:35:39;;;;;;;9.57;7.47;;;5.80;99.90;4.80;99711.00;;;;4931167;28;93970;-66
2024/03/04 07:38:05;;;;;;;10.70;8.20;;;5.00;99.90;4.90;99708.00;;;;4929371;28;101403;-66
2024/03/04 07:40:31;;;;;;;12.27;7.90;;;5.30;99.90;5.00;99717.00;;;;4930343;28;97055;-66
2024/03/04 07:42:57;;;;;;;11.27;8.27;;;5.10;99.90;5.10;99713.00;;;;4928456;28;122776;-66
2024/03/04 07:45:22;;;;;;;11.73;8.57;;;6.20;99.90;5.20;99717.00;;;;4931477;28;118292;-66
2024/03/04 07:47:49;;;;;;;14.83;8.83;;;5.30;99.90;5.30;99708.00;;;;4925548;28;110768;-66
2024/03/04 07:50:14;;;;;;;11.77;8.43;;;5.40;99.90;5.30;99719.00;;;;4926751;28;97171;-65
2024/03/04 07:52:40;;;;;;;13.73;8.80;;;5.50;99.90;5.40;99710.00;;;;4924072;28;115965;-66
2024/03/04 07:55:11;;;;;;;19.63;8.53;;;6.30;99.90;5.50;99715.00;;;;4926284;28;122270;-66
2024/03/04 07:57:39;;;;;;;16.17;8.83;;;5.80;99.90;5.60;99712.00;;;;4926315;28;92871;-66
2024/03/04 08:00:06;;;;;;;9.70;7.87;;;6.40;99.90;5.70;99722.00;;;;4927569;28;93912;-66
2024/03/04 08:02:31;;;;;;;12.57;8.53;;;5.90;99.90;5.80;99721.00;;;;4930480;28;93934;-65
2024/03/04 08:04:57;;;;;;;13.00;8.97;;;5.80;99.90;5.90;99718.00;;;;4929755;28;122258;-66
2024/03/04 08:07:23;;;;;;;19.40;10.47;;;6.70;99.90;5.90;99727.00;;;;4932914;28;109326;-66
2024/03/04 08:09:49;;;;;;;12.20;9.43;;;6.40;99.90;6.00;99732.00;;;;4930940;28;107779;-67
2024/03/04 08:12:15;;;;;;;10.43;8.57;;;6.00;99.90;6.00;99732.00;;;;4926853;28;123840;-66
2024/03/04 08:14:40;;;;;;;12.13;8.13;;;6.10;99.90;6.00;99729.00;;;;4927254;28;93958;-65
2024/03/04 08:17:08;;;;;;;16.27;8.40;;;6.30;99.90;6.00;99737.00;;;;4928840;28;92242;-66
2024/03/04 08:19:33;;;;;;;9.90;7.80;;;6.90;99.90;6.00;99739.00;;;;4930900;28;93086;-67
2024/03/04 08:21:59;;;;;;;14.73;8.53;;;6.80;99.90;6.00;99734.00;;;;4929683;28;120893;-66
2024/03/04 08:24:25;;;;;;;13.10;7.77;;;6.30;99.90;6.00;99728.00;;;;4926270;28;122671;-66
2024/03/04 08:26:51;;;;;;;11.17;7.93;;;6.10;99.90;6.00;99734.00;;;;4931510;28;93245;-66
2024/03/04 08:29:17;;;;;;;10.57;7.63;;;6.10;99.90;6.10;99744.00;;;;4931888;28;93079;-66
2024/03/04 08:31:43;;;;;;;16.77;9.53;;;6.40;99.90;6.10;99748.00;;;;4931358;28;122956;-66
2024/03/04 08:34:08;;;;;;;12.53;8.53;;;6.20;99.90;6.10;99753.00;;;;4930566;28;93471;-66
2024/03/04 08:36:34;;;;;;;11.97;8.93;;;7.00;99.90;6.30;99756.00;;;;4931351;28;109869;-67
2024/03/04 08:39:00;;;;;;;15.00;8.27;;;6.20;99.90;6.40;99747.00;;;;4929905;28;106725;-67
2024/03/04 08:41:25;;;;;;;13.20;9.67;;;6.40;99.90;6.50;99750.00;;;;4927796;28;103903;-67
2024/03/04 08:43:51;;;;;;;15.30;10.20;;;6.00;99.90;6.60;99748.00;;;;4932257;28;92786;-67
2024/03/04 08:46:18;;;;;;;17.17;11.20;;;7.30;99.90;6.70;99760.00;;;;4930676;28;93178;-67
2024/03/04 08:48:44;;;;;;;17.37;10.10;;;6.90;99.90;6.80;99766.00;;;;4926126;28;94089;-67
2024/03/04 08:51:09;;;;;;;14.57;8.67;;;7.00;99.90;6.90;99767.00;;;;4926524;28;115866;-66
2024/03/04 08:53:35;;;;;;;15.33;9.07;;;7.30;99.90;6.90;99770.00;;;;4927375;28;105796;-66
2024/03/04 08:56:01;;;;;;;15.83;9.20;;;6.90;99.90;7.00;99774.00;;;;4927959;28;92943;-67
2024/03/04 08:58:27;;;;;;;16.97;10.90;;;7.10;99.90;7.10;99770.00;;;;4925868;28;93162;-66
2024/03/04 09:00:53;;;;;;;18.67;10.93;;;7.20;99.90;7.30;99772.00;;;;4926382;28;120760;-67
2024/03/04 09:03:18;;;;;;;19.13;11.20;;;7.40;99.90;7.40;99762.00;;;;4924788;28;123386;-67
2024/03/04 09:05:44;;;;;;;17.77;10.40;;;7.50;99.90;7.60;99780.00;;;;4927711;28;113055;-66
2024/03/04 09:08:11;;;;;;;18.27;10.90;;;7.60;99.90;7.70;99776.00;;;;4927808;28;92846;-67
2024/03/04 09:10:38;;;;;;;29.77;11.97;;;7.80;99.90;7.90;99779.00;;;;4924879;28;93786;-67
2024/03/04 09:13:04;;;;;;;21.37;11.83;;;7.90;99.90;8.00;99781.00;;;;4924757;28;93955;-68
2024/03/04 09:15:30;;;;;;;23.63;12.60;;;8.00;99.90;8.10;99784.00;;;;4915827;28;93016;-67
2024/03/04 09:17:56;;;;;;;19.97;10.43;;;8.10;99.90;8.10;99784.00;;;;4925879;28;107426;-68
2024/03/04 09:20:22;;;;;;;14.23;11.30;;;8.20;99.90;8.20;99789.00;;;;4925587;28;94141;-68
2024/03/04 09:22:47;;;;;;;14.90;9.77;;;8.30;99.90;8.20;99789.00;;;;4922494;28;124062;-69
2024/03/04 09:25:13;;;;;;;14.97;10.73;;;8.30;99.90;8.30;99793.00;;;;4927914;28;112660;-67
2024/03/04 09:27:45;;;;;;;16.47;10.17;;;8.30;99.90;8.30;99799.00;;;;4926913;28;106820;-68
2024/03/04 09:30:11;;;;;;;18.80;11.07;;;8.40;99.90;8.30;99800.00;;;;4923878;28;123455;-69
2024/03/04 09:32:37;;;;;;;23.23;11.23;;;8.40;99.90;8.40;99785.00;;;;4923603;28;108832;-67
2024/03/04 09:35:04;;;;;;;19.87;10.93;;;8.40;99.90;8.30;99790.00;;;;4926340;28;92814;-68
2024/03/04 09:37:30;;;;;;;16.00;11.60;;;8.40;99.90;8.30;99790.00;;;;4922189;28;94859;-67
2024/03/04 09:39:56;;;;;;;19.80;10.60;;;8.40;99.90;8.20;99791.00;;;;4927714;28;103720;-68
2024/03/04 09:42:32;;;;;;;17.07;10.33;;;8.80;99.90;8.20;99800.00;;;;4926087;28;93235;-67
2024/03/04 09:44:59;;;;;;;20.63;12.10;;;8.30;99.90;8.30;99798.00;;;;4930187;28;93100;-67
2024/03/04 09:47:25;;;;;;;17.37;10.97;;;8.30;99.90;8.30;99797.00;;;;4931116;28;92862;-67
2024/03/04 09:49:53;;;;;;;19.57;10.77;;;8.30;99.90;8.30;99800.00;;;;4928016;28;94351;-67
2024/03/04 09:52:20;;;;;;;19.70;12.60;;;8.40;99.90;8.30;99800.00;;;;4928125;28;92898;-67
2024/03/04 09:54:47;;;;;;;16.33;11.10;;;8.40;99.90;8.40;99810.00;;;;4934957;28;92286;-67
2024/03/04 09:57:12;;;;;;;17.43;11.70;;;8.40;99.90;8.40;99820.00;;;;4930956;28;93193;-66
2024/03/04 09:59:39;;;;;;;22.40;13.07;;;8.40;99.90;8.40;99811.00;;;;4929821;28;124794;-65
2024/03/04 10:02:10;;;;;;;21.60;12.57;;;8.40;99.90;8.40;99809.00;;;;4928399;28;95787;-65
2024/03/04 10:04:38;;;;;;;26.07;12.80;;;8.50;99.90;8.50;99818.00;;;;4928899;28;93168;-66
2024/03/04 10:07:04;;;;;;;23.00;13.43;;;8.50;99.90;8.50;99824.00;;;;4928979;28;92979;-65
2024/03/04 10:09:29;;;;;;;19.70;13.53;;;8.60;99.90;8.60;99827.00;;;;4935392;28;94028;-65
2024/03/04 10:11:57;;;;;;;19.23;13.30;;;8.60;99.90;8.70;99832.00;;;;4929743;28;93133;-66
2024/03/04 10:14:23;;;;;;;23.47;12.27;;;8.70;99.90;8.70;99826.00;;;;4934123;28;92925;-66
2024/03/04 10:16:49;;;;;;;26.23;14.47;;;8.70;99.90;8.80;99835.00;;;;4928798;28;108979;-64
2024/03/04 10:19:19;;;;;;;22.73;14.00;;;8.80;99.90;8.90;99837.00;;;;4926940;28;93179;-65
2024/03/04 10:21:48;;;;;;;23.30;13.03;;;8.90;99.90;8.90;99831.00;;;;4931009;28;93048;-65
2024/03/04 10:24:14;;;;;;;15.00;11.77;;;9.00;99.90;9.00;99828.00;;;;4931015;28;93025;-65
2024/03/04 10:26:45;;;;;;;25.83;14.23;;;9.10;99.90;9.10;99840.00;;;;4928438;28;93826;-64
2024/03/04 10:29:14;;;;;;;24.10;13.60;;;9.10;99.90;9.10;99836.00;;;;4929998;28;93926;-66
2024/03/04 10:31:53;;;;;;;28.70;14.27;;;9.10;99.90;9.10;99843.00;;;;4926435;28;93968;-65
2024/03/04 10:34:20;;;;;;;32.57;13.77;;;9.10;99.90;9.20;99849.00;;;;4928153;28;92935;-66
2024/03/04 10:36:48;;;;;;;22.60;14.10;;;9.20;99.90;9.20;99849.00;;;;4933211;28;93154;-64
2024/03/04 10:39:16;;;;;;;26.07;13.47;;;9.30;99.90;9.30;99846.00;;;;4930917;28;94036;-64
2024/03/04 10:41:44;;;;;;;25.03;14.53;;;9.30;99.90;9.30;99837.00;;;;4927886;28;121586;-64
2024/03/04 10:44:25;;;;;;;25.93;13.70;;;9.30;99.90;9.30;99848.00;;;;4931769;28;92459;-64
2024/03/04 10:46:56;;;;;;;26.10;16.30;;;9.40;99.90;9.40;99848.00;;;;4931496;28;92805;-66
2024/03/04 10:49:23;;;;;;;26.57;14.63;;;9.40;99.90;9.40;99855.00;;;;4931011;28;93436;-63
2024/03/04 10:51:48;;;;;;;29.03;14.07;;;10.00;99.90;9.40;99860.00;;;;4930757;28;94132;-63
2024/03/04 10:54:14;;;;;;;26.00;14.57;;;9.40;99.90;9.40;99846.00;;;;4929604;28;113900;-64
2024/03/04 10:56:57;;;;;;;21.73;15.27;;;9.40;99.90;9.30;99856.00;;;;4930622;28;92943;-62
2024/03/04 10:59:35;;;;;;;25.57;14.17;;;9.40;99.90;9.20;99860.00;;;;4931186;28;93480;-62